createdAt,value
2022-12-31T00:02:16.667Z,1.10
2022-12-31T00:05:02.112Z,1.07
2022-12-31T00:07:47.655Z,0.80
2022-12-31T00:10:39.835Z,0.80
2022-12-31T00:13:25.349Z,1.08
2022-12-31T00:16:14.262Z,1.00
2022-12-31T00:19:01.101Z,0.67
2022-12-31T00:21:46.346Z,0.83
2022-12-31T00:24:31.693Z,1.10
2022-12-31T00:27:16.905Z,1.00
2022-12-31T00:30:04.849Z,0.87
2022-12-31T00:32:50.909Z,0.93
2022-12-31T00:35:36.429Z,0.87
2022-12-31T00:38:21.991Z,0.80
2022-12-31T00:41:07.916Z,0.70
2022-12-31T00:43:53.783Z,0.80
2022-12-31T00:49:23.541Z,0.80
2022-12-31T00:52:08.916Z,1.00
2022-12-31T00:54:54.114Z,0.70
2022-12-31T00:57:39.323Z,0.90
2022-12-31T01:00:24.587Z,0.73
2022-12-31T01:03:10.072Z,0.70
2022-12-31T01:05:59.609Z,0.90
2022-12-31T01:08:48.735Z,1.00
2022-12-31T01:11:34.386Z,0.80
2022-12-31T01:14:20.630Z,0.80
2022-12-31T01:17:06.170Z,0.80
2022-12-31T01:19:51.483Z,0.87
2022-12-31T01:22:36.756Z,0.90
2022-12-31T01:25:22.090Z,0.80
2022-12-31T01:28:08.085Z,0.90
2022-12-31T01:30:53.859Z,0.70
2022-12-31T01:33:39.029Z,0.70
2022-12-31T01:36:27.604Z,0.70
2022-12-31T01:39:13.175Z,0.63
2022-12-31T01:44:39.101Z,0.77
2022-12-31T01:47:41.388Z,0.80
2022-12-31T01:50:33.370Z,0.80
2022-12-31T01:53:18.228Z,0.90
2022-12-31T01:56:03.036Z,0.60
2022-12-31T01:58:50.994Z,0.60
2022-12-31T02:01:37.561Z,0.80
2022-12-31T02:09:38.696Z,0.50
2022-12-31T02:12:23.353Z,0.70
2022-12-31T02:15:08.852Z,0.80
2022-12-31T02:18:32.159Z,0.70
2022-12-31T02:21:33.778Z,0.40
2022-12-31T02:24:32.290Z,0.80
2022-12-31T02:27:45.112Z,0.73
2022-12-31T02:30:33.291Z,0.53
2022-12-31T02:33:27.670Z,0.60
2022-12-31T02:36:20.547Z,0.60
2022-12-31T02:39:07.536Z,0.40
2022-12-31T02:41:53.802Z,0.60
2022-12-31T02:44:43.493Z,0.67
2022-12-31T02:47:29.005Z,0.70
2022-12-31T02:50:32.575Z,0.60
2022-12-31T02:53:35.312Z,0.50
2022-12-31T02:56:52.607Z,0.70
2022-12-31T03:00:03.113Z,0.60
2022-12-31T03:02:50.573Z,0.60
2022-12-31T03:05:42.420Z,0.70
2022-12-31T03:08:27.870Z,0.50
2022-12-31T03:11:33.223Z,0.50
2022-12-31T03:14:18.814Z,0.53
2022-12-31T03:17:03.972Z,0.50
2022-12-31T03:20:07.742Z,0.57
2022-12-31T03:22:53.108Z,0.70
2022-12-31T03:25:41.127Z,0.60
2022-12-31T03:28:29.577Z,0.60
2022-12-31T03:31:16.296Z,0.60
2022-12-31T03:34:01.637Z,0.53
2022-12-31T03:36:46.979Z,0.70
2022-12-31T03:39:32.102Z,0.50
2022-12-31T03:42:17.280Z,0.67
2022-12-31T03:45:03.465Z,0.60
2022-12-31T03:47:49.118Z,0.60
2022-12-31T03:50:34.954Z,0.50
2022-12-31T03:53:20.634Z,0.70
2022-12-31T03:56:06.377Z,0.50
2022-12-31T03:58:52.162Z,0.50
2022-12-31T04:01:37.896Z,0.53
2022-12-31T04:04:23.566Z,0.70
2022-12-31T04:07:08.833Z,0.60
2022-12-31T04:09:54.156Z,0.50
2022-12-31T04:12:39.831Z,0.50
2022-12-31T04:15:25.386Z,0.50
2022-12-31T04:18:10.803Z,0.50
2022-12-31T04:21:01.929Z,0.60
2022-12-31T04:23:47.366Z,0.53
2022-12-31T04:26:33.146Z,0.50
2022-12-31T04:29:18.576Z,0.60
2022-12-31T04:32:05.672Z,0.50
2022-12-31T04:34:51.058Z,0.50
2022-12-31T04:37:36.417Z,0.60
2022-12-31T04:40:21.662Z,0.43
2022-12-31T04:43:06.864Z,0.40
2022-12-31T04:45:52.269Z,0.50
2022-12-31T04:48:37.750Z,0.47
2022-12-31T04:51:24.717Z,0.47
2022-12-31T04:54:10.094Z,0.50
2022-12-31T04:56:55.304Z,0.40
2022-12-31T04:59:40.541Z,0.40
2022-12-31T05:02:26.026Z,0.40
2022-12-31T05:05:11.875Z,0.47
2022-12-31T05:07:57.394Z,0.50
2022-12-31T05:10:48.229Z,0.50
2022-12-31T05:13:33.928Z,0.40
2022-12-31T05:16:19.355Z,0.43
2022-12-31T05:19:06.371Z,0.50
2022-12-31T05:22:10.139Z,0.50
2022-12-31T05:24:56.237Z,0.50
2022-12-31T05:27:41.942Z,0.50
2022-12-31T05:30:27.345Z,0.70
2022-12-31T05:33:12.570Z,0.33
2022-12-31T05:35:58.774Z,0.50
2022-12-31T05:38:44.406Z,0.60
2022-12-31T05:41:29.965Z,0.50
2022-12-31T05:44:15.040Z,0.40
2022-12-31T05:47:00.285Z,0.57
2022-12-31T05:49:45.631Z,0.37
2022-12-31T05:52:30.803Z,0.70
2022-12-31T05:55:16.225Z,0.80
2022-12-31T05:58:01.439Z,0.70
2022-12-31T06:00:46.859Z,0.60
2022-12-31T06:03:32.236Z,0.60
2022-12-31T06:06:17.449Z,0.70
2022-12-31T06:09:03.703Z,0.60
2022-12-31T06:11:49.230Z,0.53
2022-12-31T06:14:34.675Z,0.70
2022-12-31T06:17:20.605Z,0.80
2022-12-31T06:20:12.476Z,0.70
2022-12-31T06:22:58.483Z,0.73
2022-12-31T06:25:43.820Z,0.63
2022-12-31T06:28:29.036Z,0.70
2022-12-31T06:31:15.337Z,0.70
2022-12-31T06:34:00.908Z,0.90
2022-12-31T06:36:46.125Z,1.00
2022-12-31T06:39:31.456Z,0.80
2022-12-31T06:42:16.604Z,1.00
2022-12-31T06:45:01.852Z,1.00
2022-12-31T06:47:47.527Z,0.90
2022-12-31T06:50:35.084Z,1.00
2022-12-31T06:53:20.691Z,1.03
2022-12-31T06:56:08.515Z,1.00
2022-12-31T06:58:54.105Z,1.00
2022-12-31T07:02:03.832Z,1.40
2022-12-31T07:04:55.248Z,1.20
2022-12-31T07:07:52.874Z,1.30
2022-12-31T07:10:49.055Z,1.50
2022-12-31T07:13:37.283Z,1.10
2022-12-31T07:16:32.032Z,1.20
2022-12-31T07:19:39.249Z,1.40
2022-12-31T07:22:24.982Z,1.10
2022-12-31T07:25:14.749Z,1.33
2022-12-31T07:28:37.295Z,1.27
2022-12-31T07:31:48.852Z,1.40
2022-12-31T07:34:37.072Z,1.10
2022-12-31T07:37:45.592Z,1.10
2022-12-31T07:41:09.673Z,1.20
2022-12-31T07:44:21.941Z,1.43
2022-12-31T07:47:20.112Z,1.27
2022-12-31T07:50:05.895Z,1.53
2022-12-31T07:52:51.471Z,1.60
2022-12-31T07:55:37.100Z,1.50
2022-12-31T07:58:34.311Z,1.03
2022-12-31T08:01:31.395Z,1.73
2022-12-31T08:04:42.443Z,1.37
2022-12-31T08:07:40.370Z,1.77
2022-12-31T08:10:34.466Z,1.53
2022-12-31T08:13:21.005Z,1.60
2022-12-31T08:16:11.567Z,1.50
2022-12-31T08:18:57.255Z,1.30
2022-12-31T08:21:57.467Z,1.37
2022-12-31T08:25:06.269Z,1.60
2022-12-31T08:28:24.531Z,1.80
2022-12-31T08:31:31.412Z,1.90
2022-12-31T08:34:37.858Z,2.00
2022-12-31T08:37:55.693Z,1.70
2022-12-31T08:41:04.920Z,2.17
2022-12-31T08:43:59.408Z,2.03
2022-12-31T08:47:03.380Z,2.27
2022-12-31T08:49:48.852Z,2.00
2022-12-31T08:52:34.737Z,2.20
2022-12-31T08:55:21.157Z,1.77
2022-12-31T08:58:25.140Z,1.93
2022-12-31T09:01:13.376Z,2.13
2022-12-31T09:04:16.225Z,1.97
2022-12-31T09:07:04.170Z,1.65
2022-12-31T09:09:55.644Z,2.13
2022-12-31T09:13:02.937Z,2.33
2022-12-31T09:15:54.414Z,2.20
2022-12-31T09:18:42.258Z,2.03
2022-12-31T09:21:27.812Z,2.10
2022-12-31T09:24:14.641Z,1.60
2022-12-31T09:27:12.964Z,2.13
2022-12-31T09:30:05.100Z,1.93
2022-12-31T09:33:01.359Z,2.10
2022-12-31T09:35:56.840Z,1.90
2022-12-31T09:39:15.089Z,2.00
2022-12-31T09:42:00.581Z,2.10
2022-12-31T09:45:23.468Z,2.10
2022-12-31T09:48:42.027Z,1.80
2022-12-31T09:51:52.288Z,2.37
2022-12-31T09:54:49.637Z,1.90
2022-12-31T09:57:53.468Z,2.10
2022-12-31T10:01:03.676Z,2.00
2022-12-31T10:04:04.174Z,1.80
2022-12-31T10:07:18.654Z,1.80
2022-12-31T10:10:20.472Z,1.80
2022-12-31T10:13:05.861Z,2.30
2022-12-31T10:16:20.622Z,2.03
2022-12-31T10:19:37.406Z,2.10
2022-12-31T10:22:40.838Z,1.87
2022-12-31T10:28:53.992Z,1.93
2022-12-31T10:31:39.838Z,2.00
2022-12-31T10:35:13.653Z,1.90
2022-12-31T10:38:13.470Z,2.30
2022-12-31T10:41:42.538Z,1.83
2022-12-31T10:44:46.032Z,2.20
2022-12-31T10:47:40.760Z,1.70
2022-12-31T10:50:48.133Z,1.80
2022-12-31T10:54:17.182Z,1.63
2022-12-31T10:57:23.745Z,1.77
2022-12-31T11:00:20.531Z,1.93
2022-12-31T11:03:32.152Z,1.80
2022-12-31T11:06:50.052Z,2.03
2022-12-31T11:09:44.516Z,1.60
2022-12-31T11:12:32.923Z,1.80
2022-12-31T11:15:21.392Z,1.80
2022-12-31T11:18:31.116Z,2.17
2022-12-31T11:21:28.543Z,1.67
2022-12-31T11:24:37.127Z,1.53
2022-12-31T11:27:48.973Z,1.80
2022-12-31T11:30:47.645Z,1.50
2022-12-31T11:33:50.120Z,1.70
2022-12-31T11:37:00.342Z,1.65
2022-12-31T11:39:57.868Z,1.60
2022-12-31T11:42:57.048Z,1.70
2022-12-31T11:46:04.372Z,1.73
2022-12-31T11:49:07.817Z,1.90
2022-12-31T11:52:21.784Z,1.90
2022-12-31T11:58:29.079Z,1.70
2022-12-31T12:01:20.322Z,1.80
2022-12-31T12:04:05.948Z,1.50
2022-12-31T12:06:52.424Z,1.60
2022-12-31T12:09:37.591Z,1.80
2022-12-31T12:12:23.224Z,1.70
2022-12-31T12:15:11.426Z,1.57
2022-12-31T12:18:04.743Z,1.60
2022-12-31T12:20:50.180Z,1.50
2022-12-31T12:23:35.585Z,1.70
2022-12-31T12:26:28.987Z,1.70
2022-12-31T12:29:14.417Z,1.60
2022-12-31T12:31:59.780Z,1.70
2022-12-31T12:34:49.636Z,1.70
2022-12-31T12:37:36.208Z,1.50
2022-12-31T12:40:29.810Z,1.50
2022-12-31T12:43:36.879Z,1.47
2022-12-31T12:46:32.251Z,1.70
2022-12-31T12:49:26.774Z,1.70
2022-12-31T12:52:27.690Z,1.70
2022-12-31T12:55:49.509Z,1.27
2022-12-31T12:58:52.273Z,1.63
2022-12-31T13:01:46.425Z,1.70
2022-12-31T13:04:34.763Z,1.57
2022-12-31T13:07:41.914Z,1.50
2022-12-31T13:10:48.272Z,1.50
2022-12-31T13:13:43.205Z,1.70
2022-12-31T13:16:37.874Z,1.43
2022-12-31T13:19:39.769Z,1.53
2022-12-31T13:22:28.184Z,1.47
2022-12-31T13:25:44.362Z,1.53
2022-12-31T13:28:31.776Z,1.50
2022-12-31T13:31:27.697Z,1.30
2022-12-31T13:34:20.977Z,1.40
2022-12-31T13:37:22.049Z,1.77
2022-12-31T13:40:23.915Z,1.77
2022-12-31T13:43:19.015Z,1.60
2022-12-31T13:46:24.395Z,1.30
2022-12-31T13:49:21.510Z,1.80
2022-12-31T13:52:37.975Z,1.50
2022-12-31T13:55:28.441Z,1.70
2022-12-31T13:58:37.984Z,1.60
2022-12-31T14:01:34.351Z,1.60
2022-12-31T14:05:17.389Z,1.63
2022-12-31T14:08:06.248Z,1.30
2022-12-31T14:11:08.189Z,1.50
2022-12-31T14:14:13.918Z,1.50
2022-12-31T14:17:24.011Z,1.27
2022-12-31T14:20:21.776Z,1.50
2022-12-31T14:23:25.459Z,1.50
2022-12-31T14:26:28.858Z,1.40
2022-12-31T14:29:51.843Z,1.60
2022-12-31T14:32:58.900Z,1.60
2022-12-31T14:35:55.190Z,1.50
2022-12-31T14:39:14.597Z,1.53
2022-12-31T14:42:06.100Z,1.50
2022-12-31T14:45:07.037Z,1.53
2022-12-31T14:48:20.082Z,1.30
2022-12-31T14:51:07.763Z,1.50
2022-12-31T14:53:55.059Z,1.50
2022-12-31T14:56:43.405Z,1.37
2022-12-31T14:59:35.682Z,1.53
2022-12-31T15:02:33.077Z,1.33
2022-12-31T15:05:25.243Z,1.40
2022-12-31T15:08:31.670Z,1.33
2022-12-31T15:11:34.343Z,1.43
2022-12-31T15:14:58.246Z,1.40
2022-12-31T15:17:46.540Z,1.38
2022-12-31T15:20:47.381Z,1.50
2022-12-31T15:23:38.495Z,1.70
2022-12-31T15:26:34.831Z,1.30
2022-12-31T15:29:44.258Z,1.40
2022-12-31T15:32:39.263Z,1.60
2022-12-31T15:35:31.946Z,1.37
2022-12-31T15:38:33.043Z,1.20
2022-12-31T15:41:18.417Z,1.27
2022-12-31T15:44:12.384Z,1.27
2022-12-31T15:47:10.684Z,1.67
2022-12-31T15:49:58.181Z,1.33
2022-12-31T15:52:48.084Z,1.33
2022-12-31T15:55:54.960Z,1.43
2022-12-31T15:58:40.693Z,1.37
2022-12-31T16:01:35.139Z,1.10
2022-12-31T16:04:24.168Z,1.10
2022-12-31T16:07:11.485Z,1.40
2022-12-31T16:09:59.583Z,1.20
2022-12-31T16:12:45.627Z,1.50
2022-12-31T16:15:33.658Z,1.40
2022-12-31T16:18:22.985Z,1.43
2022-12-31T16:21:30.675Z,1.40
2022-12-31T16:24:32.141Z,1.40
2022-12-31T16:27:17.824Z,1.40
2022-12-31T16:30:08.547Z,1.40
2022-12-31T16:32:57.957Z,1.50
2022-12-31T16:35:44.522Z,1.30
2022-12-31T16:38:35.899Z,1.53
2022-12-31T16:41:22.128Z,1.73
2022-12-31T16:44:25.027Z,1.40
2022-12-31T16:47:18.701Z,1.42
2022-12-31T16:52:57.819Z,1.73
2022-12-31T16:55:44.108Z,1.73
2022-12-31T16:58:37.215Z,2.43
2022-12-31T17:01:27.891Z,2.28
2022-12-31T17:04:18.690Z,2.37
2022-12-31T17:07:26.612Z,2.67
2022-12-31T17:10:20.790Z,2.53
2022-12-31T17:13:30.005Z,3.00
2022-12-31T17:16:17.789Z,2.87
2022-12-31T17:19:03.939Z,3.97
2022-12-31T17:21:49.508Z,3.33
2022-12-31T17:24:35.939Z,3.70
2022-12-31T17:27:21.433Z,2.80
2022-12-31T17:30:40.317Z,3.00
2022-12-31T17:33:30.779Z,3.40
2022-12-31T17:36:23.794Z,3.50
2022-12-31T17:39:39.482Z,3.47
2022-12-31T17:42:28.201Z,3.17
2022-12-31T17:45:21.568Z,3.30
2022-12-31T17:48:07.188Z,3.15
2022-12-31T17:50:59.746Z,3.50
2022-12-31T17:53:45.271Z,3.17
2022-12-31T17:56:30.742Z,3.33
2022-12-31T17:59:25.668Z,3.17
2022-12-31T18:02:13.536Z,2.83
2022-12-31T18:04:59.368Z,4.00
2022-12-31T18:07:45.140Z,4.83
2022-12-31T18:10:37.161Z,4.43
2022-12-31T18:13:25.917Z,3.33
2022-12-31T18:16:11.301Z,3.13
2022-12-31T18:19:00.583Z,2.90
2022-12-31T18:21:46.615Z,3.20
2022-12-31T18:24:32.184Z,3.17
2022-12-31T18:27:19.095Z,3.27
2022-12-31T18:30:05.931Z,3.37
2022-12-31T18:32:53.880Z,3.00
2022-12-31T18:36:07.849Z,3.33
2022-12-31T18:38:45.909Z,8.80
2022-12-31T18:41:38.860Z,5.43
2022-12-31T18:44:24.005Z,6.50
2022-12-31T18:47:18.481Z,6.43
2022-12-31T18:50:03.938Z,4.60
2022-12-31T18:52:49.587Z,4.73
2022-12-31T18:55:40.840Z,5.17
2022-12-31T18:58:26.417Z,5.03
2022-12-31T19:01:32.180Z,5.03
2022-12-31T19:04:26.544Z,5.13
2022-12-31T19:07:13.193Z,5.27
2022-12-31T19:09:58.821Z,5.10
2022-12-31T19:12:44.661Z,5.00
2022-12-31T19:15:33.398Z,4.90
2022-12-31T19:18:19.176Z,5.40
2022-12-31T19:21:05.054Z,4.70
2022-12-31T19:23:51.183Z,4.87
2022-12-31T19:26:41.343Z,4.77
2022-12-31T19:29:29.078Z,5.33
2022-12-31T19:32:14.482Z,5.10
2022-12-31T19:34:59.892Z,4.57
2022-12-31T19:37:47.011Z,4.57
2022-12-31T19:40:32.859Z,4.60
2022-12-31T19:43:20.277Z,4.97
2022-12-31T19:46:05.852Z,4.27
2022-12-31T19:48:51.832Z,4.67
2022-12-31T19:51:38.637Z,4.90
2022-12-31T19:54:24.000Z,4.60
2022-12-31T19:57:09.699Z,4.87
2022-12-31T19:59:54.962Z,4.70
2022-12-31T20:02:41.443Z,4.37
2022-12-31T20:05:27.936Z,4.63
2022-12-31T20:08:16.602Z,4.77
2022-12-31T20:11:17.531Z,4.63
2022-12-31T20:14:02.864Z,4.57
2022-12-31T20:16:48.386Z,4.83
2022-12-31T20:19:34.108Z,4.60
2022-12-31T20:22:20.129Z,4.23
2022-12-31T20:25:06.255Z,3.93
2022-12-31T20:27:55.781Z,4.40
2022-12-31T20:30:41.391Z,4.50
2022-12-31T20:33:26.696Z,4.40
2022-12-31T20:36:14.604Z,9.93
2022-12-31T20:38:59.888Z,14.97
2022-12-31T20:41:45.867Z,9.70
2022-12-31T20:44:31.049Z,6.30
2022-12-31T20:47:17.651Z,5.77
2022-12-31T20:50:12.286Z,6.07
2022-12-31T20:52:57.846Z,7.10
2022-12-31T20:55:43.197Z,6.47
2022-12-31T20:58:29.426Z,7.30
2022-12-31T21:01:18.558Z,7.10
2022-12-31T21:04:06.366Z,6.40
2022-12-31T21:06:53.428Z,6.67
2022-12-31T21:09:39.077Z,6.60
2022-12-31T21:12:43.000Z,6.60
2022-12-31T21:15:28.252Z,6.40
2022-12-31T21:18:13.891Z,6.67
2022-12-31T21:21:00.719Z,6.50
2022-12-31T21:23:46.769Z,6.53
2022-12-31T21:26:32.337Z,6.60
2022-12-31T21:29:17.640Z,6.67
2022-12-31T21:32:02.976Z,6.77
2022-12-31T21:35:14.659Z,7.67
2022-12-31T21:37:58.629Z,7.17
2022-12-31T21:40:46.302Z,6.77
2022-12-31T21:43:34.232Z,7.57
2022-12-31T21:46:20.984Z,7.27
2022-12-31T21:49:06.760Z,7.63
2022-12-31T21:52:10.984Z,7.17
2022-12-31T21:55:17.821Z,6.83
2022-12-31T22:01:38.655Z,7.80
2022-12-31T22:05:00.509Z,7.17
2022-12-31T22:07:29.551Z,7.40
2022-12-31T22:10:15.207Z,6.90
2022-12-31T22:13:00.973Z,7.20
2022-12-31T22:15:48.205Z,7.27
2022-12-31T22:18:41.351Z,7.10
2022-12-31T22:21:27.721Z,7.20
2022-12-31T22:24:13.355Z,7.17
2022-12-31T22:26:59.729Z,7.23
2022-12-31T22:30:05.506Z,7.13
2022-12-31T22:32:50.774Z,6.80
2022-12-31T22:35:36.003Z,7.07
2022-12-31T22:38:21.116Z,7.17
2022-12-31T22:41:07.675Z,7.43
2022-12-31T22:44:02.611Z,6.93
2022-12-31T22:46:49.795Z,7.47
2022-12-31T23:50:36.611Z,7.77
2022-12-31T23:53:23.238Z,8.00
2022-12-31T23:56:17.652Z,8.20
2022-12-31T23:59:10.834Z,8.10
